createdAt,value
2018-12-17T00:01:52.383Z,15.60
2018-12-17T00:04:19.809Z,16.90
2018-12-17T00:06:47.338Z,17.23
2018-12-17T00:09:14.804Z,17.50
2018-12-17T00:11:42.307Z,18.25
2018-12-17T00:14:09.760Z,18.75
2018-12-17T00:16:37.201Z,19.15
2018-12-17T00:19:04.646Z,19.42
2018-12-17T00:21:32.104Z,19.17
2018-12-17T00:23:59.574Z,17.95
2018-12-17T00:26:27.049Z,19.15
2018-12-17T00:28:54.482Z,18.00
2018-12-17T00:31:21.943Z,16.87
2018-12-17T00:33:49.492Z,16.35
2018-12-17T00:36:16.942Z,17.62
2018-12-17T00:38:44.398Z,16.67
2018-12-17T00:41:11.861Z,19.12
2018-12-17T00:43:39.466Z,18.35
2018-12-17T00:46:06.914Z,17.62
2018-12-17T00:48:34.427Z,16.20
2018-12-17T00:51:01.870Z,15.78
2018-12-17T00:53:29.343Z,16.25
2018-12-17T00:55:56.790Z,15.55
2018-12-17T00:58:24.246Z,15.95
2018-12-17T01:00:51.711Z,17.35
2018-12-17T01:03:19.265Z,16.30
2018-12-17T01:05:46.704Z,15.72
2018-12-17T01:08:14.300Z,16.93
2018-12-17T01:10:41.743Z,15.93
2018-12-17T01:13:09.186Z,16.50
2018-12-17T01:15:36.647Z,16.23
2018-12-17T01:18:04.091Z,16.52
2018-12-17T01:20:31.549Z,15.78
2018-12-17T01:22:59.015Z,15.08
2018-12-17T01:25:26.499Z,14.95
2018-12-17T01:27:53.943Z,17.02
2018-12-17T01:30:21.459Z,15.70
2018-12-17T01:32:49.062Z,15.18
2018-12-17T01:35:17.211Z,16.37
2018-12-17T01:37:44.646Z,15.63
2018-12-17T01:40:12.263Z,16.05
2018-12-17T01:42:40.118Z,14.58
2018-12-17T01:45:07.537Z,16.85
2018-12-17T01:47:35.857Z,15.95
2018-12-17T01:50:03.928Z,14.38
2018-12-17T01:52:31.392Z,15.50
2018-12-17T01:54:59.651Z,15.23
2018-12-17T01:57:27.811Z,14.55
2018-12-17T01:59:55.270Z,15.20
2018-12-17T02:02:22.718Z,16.37
2018-12-17T02:04:50.262Z,15.13
2018-12-17T02:07:17.720Z,17.02
2018-12-17T02:09:45.176Z,16.20
2018-12-17T02:12:12.625Z,14.18
2018-12-17T02:14:40.230Z,15.35
2018-12-17T02:17:07.686Z,15.68
2018-12-17T02:19:35.140Z,14.68
2018-12-17T02:22:02.679Z,13.83
2018-12-17T02:24:30.115Z,13.22
2018-12-17T02:26:57.559Z,14.50
2018-12-17T02:29:25.020Z,15.25
2018-12-17T02:31:52.471Z,13.20
2018-12-17T02:34:19.981Z,15.35
2018-12-17T02:36:47.429Z,15.30
2018-12-17T02:39:14.909Z,14.43
2018-12-17T02:41:42.447Z,14.73
2018-12-17T02:44:10.101Z,16.37
2018-12-17T02:46:37.546Z,15.68
2018-12-17T02:49:05.006Z,16.17
2018-12-17T02:51:32.623Z,13.72
2018-12-17T02:54:00.349Z,13.85
2018-12-17T02:56:28.419Z,14.13
2018-12-17T02:58:55.870Z,15.70
2018-12-17T03:01:23.324Z,16.02
2018-12-17T03:03:50.757Z,15.50
2018-12-17T03:06:18.220Z,15.28
2018-12-17T03:08:45.654Z,15.45
2018-12-17T03:11:13.102Z,15.20
2018-12-17T03:13:40.542Z,15.72
2018-12-17T03:16:07.997Z,16.20
2018-12-17T03:18:35.447Z,13.93
2018-12-17T03:21:02.932Z,14.45
2018-12-17T03:23:30.373Z,14.80
2018-12-17T03:25:57.811Z,15.20
2018-12-17T03:28:25.272Z,15.10
2018-12-17T03:30:52.735Z,14.83
2018-12-17T03:33:20.258Z,13.98
2018-12-17T03:35:47.709Z,14.50
2018-12-17T03:38:15.157Z,15.32
2018-12-17T03:40:42.586Z,16.27
2018-12-17T03:43:10.047Z,16.25
2018-12-17T03:45:37.569Z,16.73
2018-12-17T03:48:05.028Z,15.30
2018-12-17T03:50:32.468Z,14.40
2018-12-17T03:52:59.963Z,16.23
2018-12-17T03:55:27.423Z,14.05
2018-12-17T03:57:54.880Z,14.18
2018-12-17T04:00:22.328Z,14.25
2018-12-17T04:02:49.763Z,14.03
2018-12-17T04:05:17.491Z,14.10
2018-12-17T04:07:44.946Z,14.83
2018-12-17T04:10:12.502Z,13.80
2018-12-17T04:12:40.023Z,13.75
2018-12-17T04:15:07.621Z,13.70
2018-12-17T04:17:35.048Z,13.20
2018-12-17T04:20:02.570Z,14.30
2018-12-17T04:22:30.013Z,13.98
2018-12-17T04:24:57.478Z,13.05
2018-12-17T04:27:24.931Z,13.18
2018-12-17T04:29:52.374Z,13.22
2018-12-17T04:32:19.862Z,13.70
2018-12-17T04:34:47.306Z,12.90
2018-12-17T04:37:14.781Z,13.15
2018-12-17T04:39:42.315Z,14.05
2018-12-17T04:42:09.758Z,13.15
2018-12-17T04:44:37.204Z,13.75
2018-12-17T04:47:04.664Z,14.58
2018-12-17T04:49:32.093Z,14.70
2018-12-17T04:51:59.570Z,15.43
2018-12-17T04:54:27.368Z,13.93
2018-12-17T04:56:54.838Z,15.88
2018-12-17T04:59:22.455Z,13.28
2018-12-17T05:01:49.897Z,15.80
2018-12-17T05:04:18.621Z,14.78
2018-12-17T05:06:46.152Z,13.90
2018-12-17T05:09:13.604Z,14.78
2018-12-17T05:11:41.055Z,13.78
2018-12-17T05:14:09.151Z,15.13
2018-12-17T05:16:36.596Z,15.08
2018-12-17T05:19:04.036Z,13.90
2018-12-17T05:21:31.577Z,14.25
2018-12-17T05:23:59.123Z,15.48
2018-12-17T05:26:26.576Z,15.75
2018-12-17T05:28:54.282Z,16.35
2018-12-17T05:31:21.741Z,17.50
2018-12-17T05:33:49.183Z,17.65
2018-12-17T05:36:16.643Z,17.45
2018-12-17T05:38:44.686Z,15.85
2018-12-17T05:41:12.127Z,17.52
2018-12-17T05:43:39.587Z,17.15
2018-12-17T05:46:07.025Z,17.82
2018-12-17T05:48:34.506Z,16.37
2018-12-17T05:51:01.944Z,16.65
2018-12-17T05:53:29.416Z,18.05
2018-12-17T05:55:56.865Z,18.92
2018-12-17T05:58:24.428Z,16.20
2018-12-17T06:00:51.863Z,14.85
2018-12-17T06:03:19.306Z,16.97
2018-12-17T06:05:46.826Z,18.75
2018-12-17T06:08:14.258Z,14.93
2018-12-17T06:10:41.717Z,15.43
2018-12-17T06:13:09.230Z,16.50
2018-12-17T06:15:36.682Z,17.92
2018-12-17T06:18:04.189Z,15.30
2018-12-17T06:20:31.647Z,16.70
2018-12-17T06:22:59.118Z,16.65
2018-12-17T06:25:26.563Z,20.48
2018-12-17T06:27:54.015Z,17.57
2018-12-17T06:30:21.508Z,17.90
2018-12-17T06:32:48.958Z,17.52
2018-12-17T06:35:16.400Z,15.05
2018-12-17T06:37:43.888Z,17.60
2018-12-17T06:40:11.335Z,17.95
2018-12-17T06:42:38.789Z,16.00
2018-12-17T06:45:06.310Z,17.55
2018-12-17T06:47:33.933Z,15.75
2018-12-17T06:50:01.381Z,18.48
2018-12-17T06:52:28.831Z,15.90
2018-12-17T06:54:56.300Z,17.40
2018-12-17T06:57:23.741Z,16.70
2018-12-17T06:59:51.192Z,16.25
2018-12-17T07:02:18.846Z,15.98
2018-12-17T07:04:46.339Z,16.67
2018-12-17T07:07:13.780Z,13.70
2018-12-17T07:09:41.239Z,15.03
2018-12-17T07:12:08.797Z,14.50
2018-12-17T07:14:36.665Z,14.00
2018-12-17T07:17:04.302Z,14.58
2018-12-17T07:19:31.864Z,13.75
2018-12-17T07:21:59.306Z,15.08
2018-12-17T07:24:26.748Z,14.85
2018-12-17T07:26:54.203Z,13.20
2018-12-17T07:29:21.634Z,14.90
2018-12-17T07:31:49.092Z,13.90
2018-12-17T07:34:17.222Z,15.05
2018-12-17T07:36:44.807Z,14.60
2018-12-17T07:39:12.333Z,15.18
2018-12-17T07:41:39.882Z,13.85
2018-12-17T07:44:07.421Z,16.82
2018-12-17T07:46:34.870Z,12.40
2018-12-17T07:49:02.733Z,13.78
2018-12-17T07:51:30.947Z,15.80
2018-12-17T07:53:58.389Z,17.25
2018-12-17T07:56:25.831Z,15.18
2018-12-17T07:58:53.284Z,14.50
2018-12-17T08:01:20.791Z,13.28
2018-12-17T08:03:48.244Z,14.33
2018-12-17T08:06:15.700Z,14.90
2018-12-17T08:08:43.152Z,13.60
2018-12-17T08:11:10.602Z,15.28
2018-12-17T08:13:38.062Z,14.28
2018-12-17T08:16:05.499Z,13.22
2018-12-17T08:18:32.943Z,14.35
2018-12-17T08:21:00.395Z,14.70
2018-12-17T08:23:27.835Z,16.87
2018-12-17T08:25:55.309Z,15.80
2018-12-17T08:28:22.794Z,14.00
2018-12-17T08:30:50.272Z,14.53
2018-12-17T08:33:17.732Z,12.75
2018-12-17T08:35:45.163Z,13.93
2018-12-17T08:38:12.766Z,13.30
2018-12-17T08:40:40.275Z,12.90
2018-12-17T08:43:07.730Z,11.65
2018-12-17T08:45:35.600Z,11.15
2018-12-17T08:48:03.126Z,11.70
2018-12-17T08:50:30.571Z,12.03
2018-12-17T08:52:58.399Z,11.68
2018-12-17T08:55:25.840Z,10.45
2018-12-17T08:57:53.278Z,10.30
2018-12-17T09:00:20.845Z,9.85
2018-12-17T09:02:48.296Z,10.05
2018-12-17T09:05:15.776Z,10.48
2018-12-17T09:07:43.215Z,10.03
2018-12-17T09:10:10.722Z,10.38
2018-12-17T09:12:38.179Z,9.55
2018-12-17T09:15:05.964Z,10.43
2018-12-17T09:17:33.431Z,9.68
2018-12-17T09:20:00.861Z,8.58
2018-12-17T09:22:28.373Z,10.65
2018-12-17T09:24:55.823Z,9.30
2018-12-17T09:27:23.333Z,9.65
2018-12-17T09:29:50.893Z,9.53
2018-12-17T09:32:18.327Z,8.35
2018-12-17T09:34:45.769Z,8.88
2018-12-17T09:37:13.211Z,7.92
2018-12-17T09:39:41.444Z,8.45
2018-12-17T09:42:08.898Z,8.30
2018-12-17T09:44:36.351Z,7.03
2018-12-17T09:47:03.916Z,7.78
2018-12-17T09:49:31.366Z,7.35
2018-12-17T09:51:58.810Z,7.37
2018-12-17T09:54:26.277Z,6.92
2018-12-17T09:56:53.719Z,5.72
2018-12-17T09:59:21.168Z,5.78
2018-12-17T10:01:50.279Z,5.00
2018-12-17T10:04:18.034Z,4.35
2018-12-17T10:06:45.518Z,4.30
2018-12-17T10:09:13.015Z,4.12
2018-12-17T10:11:40.443Z,3.90
2018-12-17T10:14:07.891Z,3.60
2018-12-17T10:16:35.340Z,3.60
2018-12-17T10:19:02.780Z,3.05
2018-12-17T10:21:30.331Z,3.25
2018-12-17T10:23:57.763Z,2.37
2018-12-17T10:26:25.273Z,3.42
2018-12-17T10:28:52.723Z,3.22
2018-12-17T10:31:20.179Z,3.00
2018-12-17T10:33:47.638Z,3.65
2018-12-17T10:36:15.141Z,5.62
2018-12-17T10:38:42.719Z,7.03
2018-12-17T10:41:10.154Z,6.55
2018-12-17T10:43:37.600Z,6.30
2018-12-17T10:46:05.052Z,3.80
2018-12-17T10:48:32.488Z,3.40
2018-12-17T10:50:59.937Z,3.17
2018-12-17T10:53:27.407Z,3.12
2018-12-17T10:55:54.875Z,3.83
2018-12-17T10:58:22.857Z,3.33
2018-12-17T11:00:55.874Z,4.40
2018-12-17T11:03:26.126Z,3.33
2018-12-17T11:05:54.755Z,2.60
2018-12-17T11:08:22.206Z,3.70
2018-12-17T11:10:49.960Z,3.40
2018-12-17T11:13:17.460Z,2.60
2018-12-17T11:15:45.419Z,2.80
2018-12-17T11:18:12.862Z,3.00
2018-12-17T11:20:40.307Z,2.72
2018-12-17T11:23:07.851Z,3.37
2018-12-17T11:25:35.314Z,2.77
2018-12-17T11:28:02.753Z,2.65
2018-12-17T11:30:30.209Z,3.45
2018-12-17T11:32:57.633Z,3.72
2018-12-17T11:35:25.738Z,3.47
2018-12-17T11:37:53.253Z,3.20
2018-12-17T11:40:20.695Z,2.98
2018-12-17T11:42:48.152Z,3.05
2018-12-17T11:45:15.591Z,6.08
2018-12-17T11:47:43.039Z,3.60
2018-12-17T11:50:10.539Z,2.60
2018-12-17T11:52:38.000Z,3.50
2018-12-17T11:55:06.406Z,3.15
2018-12-17T11:57:40.418Z,4.00
2018-12-17T12:00:08.648Z,3.17
2018-12-17T12:02:36.118Z,4.47
2018-12-17T12:05:03.681Z,3.05
2018-12-17T12:07:31.131Z,4.23
2018-12-17T12:09:58.578Z,3.10
2018-12-17T12:12:26.028Z,3.80
2018-12-17T12:14:53.470Z,3.60
2018-12-17T12:17:20.907Z,3.77
2018-12-17T12:19:48.342Z,3.10
2018-12-17T12:22:15.798Z,4.40
2018-12-17T12:24:43.274Z,2.20
2018-12-17T12:27:10.736Z,2.77
2018-12-17T12:29:38.171Z,3.10
2018-12-17T12:32:05.802Z,4.60
2018-12-17T12:34:33.231Z,2.83
2018-12-17T12:37:00.710Z,2.62
2018-12-17T12:39:28.159Z,3.67
2018-12-17T12:41:58.016Z,2.40
2018-12-17T12:44:25.483Z,2.85
2018-12-17T12:46:52.918Z,4.60
2018-12-17T12:49:20.365Z,3.70
2018-12-17T12:51:48.324Z,3.02
2018-12-17T12:54:15.949Z,3.75
2018-12-17T12:56:43.376Z,2.80
2018-12-17T12:59:12.038Z,2.83
2018-12-17T13:01:40.207Z,3.85
2018-12-17T13:04:07.668Z,3.35
2018-12-17T13:06:35.102Z,3.35
2018-12-17T13:09:03.953Z,2.75
2018-12-17T13:11:31.387Z,4.42
2018-12-17T13:13:58.827Z,3.55
2018-12-17T13:16:26.282Z,5.95
2018-12-17T13:18:53.718Z,3.77
2018-12-17T13:21:21.166Z,3.37
2018-12-17T13:23:48.622Z,3.35
2018-12-17T13:26:16.050Z,2.37
2018-12-17T13:28:43.511Z,3.35
2018-12-17T13:31:14.587Z,2.60
2018-12-17T13:33:40.377Z,3.45
2018-12-17T13:36:07.835Z,3.62
2018-12-17T13:38:35.292Z,3.15
2018-12-17T13:41:03.387Z,2.80
2018-12-17T13:43:30.864Z,4.17
2018-12-17T13:45:58.300Z,2.98
2018-12-17T13:48:25.856Z,4.05
2018-12-17T13:50:53.312Z,2.83
2018-12-17T13:53:26.356Z,2.92
2018-12-17T13:55:53.790Z,4.75
2018-12-17T13:58:21.302Z,4.37
2018-12-17T14:00:48.747Z,3.50
2018-12-17T14:03:16.408Z,6.35
2018-12-17T14:05:43.843Z,5.00
2018-12-17T14:08:11.295Z,4.25
2018-12-17T14:10:44.310Z,3.77
2018-12-17T14:13:11.760Z,6.58
2018-12-17T14:15:44.823Z,3.58
2018-12-17T14:18:18.282Z,3.70
2018-12-17T14:23:53.218Z,3.50
2018-12-17T14:26:20.653Z,3.52
2018-12-17T14:28:48.103Z,3.58
2018-12-17T14:31:15.540Z,3.35
2018-12-17T14:33:43.046Z,3.22
2018-12-17T14:36:10.491Z,3.47
2018-12-17T14:38:38.018Z,3.22
2018-12-17T14:41:05.518Z,3.65
2018-12-17T14:43:32.976Z,3.92
2018-12-17T14:46:00.417Z,5.47
2018-12-17T14:48:27.875Z,6.45
2018-12-17T14:50:55.310Z,3.60
2018-12-17T14:53:22.763Z,7.37
2018-12-17T14:55:50.275Z,5.75
2018-12-17T14:58:17.719Z,4.35
2018-12-17T15:00:45.858Z,6.92
2018-12-17T15:03:13.309Z,10.18
2018-12-17T15:05:40.871Z,3.85
2018-12-17T15:08:08.314Z,2.60
2018-12-17T15:10:35.758Z,6.40
2018-12-17T15:13:03.269Z,3.77
2018-12-17T15:15:30.744Z,4.30
2018-12-17T15:17:58.570Z,5.83
2018-12-17T15:20:26.090Z,3.75
2018-12-17T15:22:53.575Z,5.03
2018-12-17T15:25:21.120Z,9.15
2018-12-17T15:27:48.603Z,4.33
2018-12-17T15:30:16.121Z,3.60
2018-12-17T15:32:43.558Z,3.30
2018-12-17T15:35:11.012Z,4.72
2018-12-17T15:37:38.719Z,5.05
2018-12-17T15:40:06.284Z,5.87
2018-12-17T15:42:40.582Z,4.75
2018-12-17T15:45:04.265Z,3.20
2018-12-17T15:47:31.700Z,3.70
2018-12-17T15:49:59.206Z,2.77
2018-12-17T15:52:26.627Z,3.85
2018-12-17T15:54:54.071Z,4.35
2018-12-17T15:57:21.532Z,3.40
2018-12-17T15:59:48.970Z,4.58
2018-12-17T16:02:16.414Z,3.80
2018-12-17T16:04:43.867Z,3.05
2018-12-17T16:07:11.302Z,3.92
2018-12-17T16:09:38.748Z,3.72
2018-12-17T16:12:06.199Z,3.87
2018-12-17T16:14:33.636Z,5.28
2018-12-17T16:17:01.096Z,3.60
2018-12-17T16:19:28.626Z,4.05
2018-12-17T16:21:56.093Z,3.92
2018-12-17T16:24:23.543Z,4.03
2018-12-17T16:26:50.991Z,2.87
2018-12-17T16:29:18.424Z,3.50
2018-12-17T16:31:46.702Z,4.30
2018-12-17T16:34:14.350Z,4.75
2018-12-17T16:36:41.946Z,4.20
2018-12-17T16:39:09.422Z,4.47
2018-12-17T16:41:36.889Z,3.80
2018-12-17T16:44:04.402Z,4.10
2018-12-17T16:46:31.843Z,4.08
2018-12-17T16:48:59.281Z,3.98
2018-12-17T16:51:26.727Z,4.90
2018-12-17T16:53:54.398Z,5.65
2018-12-17T16:56:21.892Z,6.65
2018-12-17T16:58:49.418Z,8.50
2018-12-17T17:01:16.858Z,6.95
2018-12-17T17:03:44.325Z,4.85
2018-12-17T17:06:12.087Z,5.12
2018-12-17T17:08:39.553Z,5.40
2018-12-17T17:11:07.040Z,7.92
2018-12-17T17:13:34.482Z,5.00
2018-12-17T17:16:02.050Z,7.95
2018-12-17T17:18:29.524Z,6.25
2018-12-17T17:20:56.967Z,4.92
2018-12-17T17:23:24.423Z,6.97
2018-12-17T17:25:51.856Z,6.70
2018-12-17T17:28:19.302Z,6.03
2018-12-17T17:30:46.746Z,5.22
2018-12-17T17:33:14.618Z,4.60
2018-12-17T17:35:42.067Z,4.78
2018-12-17T17:38:09.512Z,5.58
2018-12-17T17:40:36.968Z,5.30
2018-12-17T17:43:04.418Z,6.25
2018-12-17T17:45:31.888Z,8.18
2018-12-17T17:47:59.331Z,7.15
2018-12-17T17:50:26.773Z,9.73
2018-12-17T17:52:54.215Z,8.18
2018-12-17T17:55:21.708Z,8.85
2018-12-17T17:57:49.137Z,8.23
2018-12-17T18:00:16.595Z,7.67
2018-12-17T18:02:44.046Z,8.00
2018-12-17T18:05:11.507Z,7.40
2018-12-17T18:07:38.951Z,6.83
2018-12-17T18:10:09.278Z,5.72
2018-12-17T18:12:36.764Z,5.67
2018-12-17T18:15:04.631Z,5.70
2018-12-17T18:17:32.260Z,4.80
2018-12-17T18:19:59.976Z,5.85
2018-12-17T18:22:27.404Z,7.00
2018-12-17T18:24:54.873Z,5.58
2018-12-17T18:27:22.371Z,5.50
2018-12-17T18:29:49.846Z,6.37
2018-12-17T18:32:17.306Z,6.12
2018-12-17T18:34:44.809Z,7.55
2018-12-17T18:37:12.255Z,5.67
2018-12-17T18:39:39.690Z,4.85
2018-12-17T18:42:07.187Z,6.22
2018-12-17T18:44:34.757Z,5.70
2018-12-17T18:47:02.251Z,7.25
2018-12-17T18:49:29.840Z,6.85
2018-12-17T18:51:57.299Z,5.58
2018-12-17T18:54:24.752Z,5.55
2018-12-17T18:56:52.211Z,4.80
2018-12-17T18:59:20.885Z,5.30
2018-12-17T19:01:48.351Z,6.20
2018-12-17T19:04:17.403Z,7.95
2018-12-17T19:06:44.853Z,9.43
2018-12-17T19:09:12.563Z,7.87
2018-12-17T19:11:40.895Z,6.10
2018-12-17T19:14:08.345Z,5.90
2018-12-17T19:16:35.785Z,5.00
2018-12-17T19:19:03.298Z,5.85
2018-12-17T19:21:30.755Z,5.42
2018-12-17T19:23:58.229Z,5.85
2018-12-17T19:26:25.752Z,5.62
2018-12-17T19:28:53.209Z,6.20
2018-12-17T19:31:20.706Z,5.53
2018-12-17T19:33:48.159Z,5.97
2018-12-17T19:36:15.598Z,5.33
2018-12-17T19:38:43.052Z,6.53
2018-12-17T19:41:10.497Z,4.60
2018-12-17T19:43:37.955Z,5.85
2018-12-17T19:46:05.666Z,9.03
2018-12-17T19:48:33.175Z,7.60
2018-12-17T19:51:01.460Z,6.78
2018-12-17T19:53:28.907Z,6.25
2018-12-17T19:55:56.354Z,7.08
2018-12-17T19:58:24.175Z,8.55
2018-12-17T20:00:54.732Z,8.40
2018-12-17T20:03:22.382Z,8.98
2018-12-17T20:05:50.795Z,7.65
2018-12-17T20:08:18.255Z,7.92
2018-12-17T20:10:48.507Z,7.30
2018-12-17T20:13:16.475Z,8.48
2018-12-17T20:15:45.649Z,7.20
2018-12-17T20:18:14.797Z,6.60
2018-12-17T20:20:42.242Z,6.28
2018-12-17T20:23:09.944Z,6.80
2018-12-17T20:25:37.414Z,6.90
2018-12-17T20:28:05.521Z,8.45
2018-12-17T20:30:33.068Z,11.03
2018-12-17T20:33:00.709Z,9.88
2018-12-17T20:35:30.071Z,9.23
2018-12-17T20:37:57.551Z,7.12
2018-12-17T20:40:24.994Z,8.30
2018-12-17T20:42:52.579Z,7.37
2018-12-17T20:45:20.058Z,8.80
2018-12-17T20:47:47.783Z,8.28
2018-12-17T20:50:15.320Z,7.85
2018-12-17T20:52:42.849Z,7.10
2018-12-17T20:55:10.603Z,8.30
2018-12-17T20:57:38.070Z,7.28
2018-12-17T21:00:06.860Z,7.42
2018-12-17T21:02:34.315Z,6.35
2018-12-17T21:05:01.825Z,7.15
2018-12-17T21:07:29.273Z,6.22
2018-12-17T21:09:56.747Z,6.92
2018-12-17T21:12:24.247Z,6.12
2018-12-17T21:14:51.711Z,5.87
2018-12-17T21:17:20.065Z,6.72
2018-12-17T21:19:47.500Z,7.35
2018-12-17T21:22:15.002Z,6.08
2018-12-17T21:24:42.507Z,6.53
2018-12-17T21:27:10.303Z,7.33
